createdAt,value
2022-08-26T00:01:29.089Z,80.73
2022-08-26T00:04:06.881Z,80.84
2022-08-26T00:06:46.115Z,80.98
2022-08-26T00:09:22.974Z,80.98
2022-08-26T00:12:01.132Z,81.02
2022-08-26T00:14:37.074Z,81.26
2022-08-26T00:17:13.722Z,81.34
2022-08-26T00:19:49.894Z,81.48
2022-08-26T00:22:28.808Z,81.57
2022-08-26T00:25:05.107Z,81.62
2022-08-26T00:27:41.918Z,81.89
2022-08-26T00:30:26.502Z,81.95
2022-08-26T00:33:05.080Z,81.90
2022-08-26T00:35:45.273Z,81.96
2022-08-26T00:38:22.293Z,82.12
2022-08-26T00:41:00.501Z,82.27
2022-08-26T00:43:46.224Z,82.36
2022-08-26T00:46:29.892Z,82.50
2022-08-26T00:49:16.917Z,82.50
2022-08-26T00:52:00.047Z,82.66
2022-08-26T00:54:45.388Z,82.81
2022-08-26T00:57:25.507Z,82.97
2022-08-26T01:00:07.394Z,83.33
2022-08-26T01:02:46.933Z,83.57
2022-08-26T01:05:25.541Z,83.77
2022-08-26T01:08:01.548Z,83.89
2022-08-26T01:10:39.836Z,83.93
2022-08-26T01:13:16.710Z,84.10
2022-08-26T01:16:02.272Z,84.22
2022-08-26T01:18:38.406Z,84.26
2022-08-26T01:21:27.783Z,84.37
2022-08-26T01:24:06.690Z,84.52
2022-08-26T01:26:46.331Z,84.55
2022-08-26T01:29:23.904Z,84.64
2022-08-26T01:32:01.507Z,84.77
2022-08-26T01:34:43.255Z,84.81
2022-08-26T01:37:25.028Z,84.86
2022-08-26T01:40:00.333Z,84.93
2022-08-26T01:42:36.920Z,84.89
2022-08-26T01:45:20.610Z,84.98
2022-08-26T01:48:00.621Z,85.00
2022-08-26T01:50:41.327Z,85.06
2022-08-26T01:53:25.143Z,85.14
2022-08-26T01:56:05.712Z,85.22
2022-08-26T01:58:47.618Z,85.30
2022-08-26T02:01:29.023Z,85.35
2022-08-26T02:04:16.964Z,85.45
2022-08-26T02:06:53.359Z,85.47
2022-08-26T02:09:30.877Z,85.49
2022-08-26T02:12:08.792Z,85.61
2022-08-26T02:14:53.428Z,85.72
2022-08-26T02:17:40.629Z,85.85
2022-08-26T02:20:21.780Z,85.93
2022-08-26T02:22:57.678Z,86.00
2022-08-26T02:25:49.467Z,86.00
2022-08-26T02:28:26.792Z,85.98
2022-08-26T02:31:02.898Z,85.97
2022-08-26T02:33:43.191Z,86.08
2022-08-26T02:36:24.039Z,86.20
2022-08-26T02:39:05.353Z,86.18
2022-08-26T02:41:44.879Z,86.28
2022-08-26T02:44:21.293Z,86.32
2022-08-26T02:46:57.319Z,86.42
2022-08-26T02:49:33.683Z,86.46
2022-08-26T02:52:10.058Z,86.45
2022-08-26T02:54:46.630Z,86.53
2022-08-26T02:57:25.524Z,86.60
2022-08-26T03:00:05.617Z,86.76
2022-08-26T03:02:41.612Z,86.81
2022-08-26T03:05:19.899Z,86.87
2022-08-26T03:07:56.459Z,86.94
2022-08-26T03:10:32.760Z,87.06
2022-08-26T03:13:09.145Z,87.07
2022-08-26T03:15:45.943Z,87.17
2022-08-26T03:18:23.856Z,87.28
2022-08-26T03:21:00.286Z,87.35
2022-08-26T03:23:38.581Z,87.34
2022-08-26T03:26:17.355Z,87.35
2022-08-26T03:29:11.358Z,87.36
2022-08-26T03:31:47.555Z,87.39
2022-08-26T03:34:24.470Z,87.49
2022-08-26T03:37:01.886Z,87.55
2022-08-26T03:39:38.238Z,87.63
2022-08-26T03:42:15.096Z,87.74
2022-08-26T03:44:51.618Z,87.82
2022-08-26T03:47:27.835Z,87.86
2022-08-26T03:50:05.594Z,87.88
2022-08-26T03:52:43.896Z,87.91
2022-08-26T03:55:23.620Z,87.92
2022-08-26T03:58:01.063Z,87.91
2022-08-26T04:00:37.275Z,87.88
2022-08-26T04:03:18.500Z,87.88
2022-08-26T04:05:57.371Z,87.97
2022-08-26T04:08:33.568Z,87.97
2022-08-26T04:11:10.584Z,87.95
2022-08-26T04:13:46.727Z,87.88
2022-08-26T04:16:24.127Z,87.78
2022-08-26T04:19:03.032Z,87.65
2022-08-26T04:21:39.503Z,87.45
2022-08-26T04:24:18.242Z,87.19
2022-08-26T04:26:56.542Z,86.89
2022-08-26T04:29:32.862Z,86.57
2022-08-26T04:32:10.663Z,86.15
2022-08-26T04:34:47.434Z,85.45
2022-08-26T04:37:24.628Z,84.94
2022-08-26T04:40:00.865Z,83.82
2022-08-26T04:42:37.994Z,82.20
2022-08-26T04:45:15.858Z,80.12
2022-08-26T04:47:58.263Z,77.71
2022-08-26T04:50:34.754Z,75.88
2022-08-26T04:53:10.669Z,73.75
2022-08-26T04:55:46.751Z,71.66
2022-08-26T04:58:27.055Z,69.23
2022-08-26T05:01:03.201Z,67.26
2022-08-26T05:03:41.014Z,65.70
2022-08-26T05:06:19.772Z,64.70
2022-08-26T05:08:55.977Z,63.11
2022-08-26T05:11:32.198Z,59.47
2022-08-26T05:14:08.497Z,57.42
2022-08-26T05:16:44.659Z,56.51
2022-08-26T05:19:24.884Z,54.24
2022-08-26T05:22:05.663Z,53.28
2022-08-26T05:24:42.081Z,51.10
2022-08-26T05:27:18.510Z,49.83
2022-08-26T05:29:57.281Z,47.90
2022-08-26T05:32:33.294Z,48.46
2022-08-26T05:35:10.949Z,45.87
2022-08-26T05:37:47.008Z,41.60
2022-08-26T05:40:23.416Z,40.71
2022-08-26T05:42:59.913Z,41.57
2022-08-26T05:45:35.883Z,41.60
2022-08-26T05:48:12.172Z,41.88
2022-08-26T05:50:52.466Z,39.46
2022-08-26T05:53:28.446Z,37.74
2022-08-26T05:56:06.356Z,36.27
2022-08-26T05:58:43.764Z,34.40
2022-08-26T06:01:26.804Z,35.75
2022-08-26T06:04:05.183Z,34.83
2022-08-26T06:06:42.861Z,35.06
2022-08-26T06:09:21.626Z,36.54
2022-08-26T06:11:58.895Z,35.79
2022-08-26T06:14:36.170Z,36.15
2022-08-26T06:17:12.916Z,34.73
2022-08-26T06:19:49.392Z,34.38
2022-08-26T06:22:43.473Z,34.49
2022-08-26T06:25:37.210Z,32.50
2022-08-26T06:28:13.733Z,33.21
2022-08-26T06:30:50.331Z,33.37
2022-08-26T06:33:28.959Z,32.68
2022-08-26T06:36:05.825Z,33.37
2022-08-26T06:38:41.959Z,32.50
2022-08-26T06:41:21.242Z,32.38
2022-08-26T06:43:57.853Z,32.75
2022-08-26T06:46:34.099Z,32.05
2022-08-26T06:49:10.774Z,32.66
2022-08-26T06:51:47.183Z,32.93
2022-08-26T06:54:25.110Z,31.59
2022-08-26T06:57:01.427Z,32.78
2022-08-26T06:59:37.724Z,31.64
2022-08-26T07:02:14.986Z,30.65
2022-08-26T07:04:53.891Z,30.88
2022-08-26T07:07:32.956Z,31.00
2022-08-26T07:10:11.282Z,30.09
2022-08-26T07:12:49.197Z,30.21
2022-08-26T07:15:31.023Z,30.45
2022-08-26T07:18:09.312Z,31.08
2022-08-26T07:20:45.887Z,30.87
2022-08-26T07:23:21.849Z,30.51
2022-08-26T07:25:58.588Z,31.08
2022-08-26T07:28:34.668Z,29.27
2022-08-26T07:31:14.468Z,28.93
2022-08-26T07:33:51.296Z,29.42
2022-08-26T07:36:30.431Z,29.41
2022-08-26T07:39:06.991Z,29.96
2022-08-26T07:41:43.168Z,29.86
2022-08-26T07:44:20.085Z,29.73
2022-08-26T07:46:56.382Z,29.67
2022-08-26T07:49:33.020Z,30.34
2022-08-26T07:52:10.445Z,30.79
2022-08-26T07:54:47.103Z,30.88
2022-08-26T07:57:24.296Z,31.19
2022-08-26T08:00:01.404Z,31.05
2022-08-26T08:02:37.777Z,30.23
2022-08-26T08:05:16.529Z,31.03
2022-08-26T08:07:53.722Z,30.38
2022-08-26T08:10:50.259Z,30.95
2022-08-26T08:13:26.482Z,30.80
2022-08-26T08:16:02.614Z,31.69
2022-08-26T08:18:38.842Z,31.65
2022-08-26T08:21:21.753Z,31.28
2022-08-26T08:24:00.907Z,31.81
2022-08-26T08:26:36.802Z,32.29
2022-08-26T08:29:13.031Z,32.53
2022-08-26T08:31:57.962Z,32.47
2022-08-26T08:34:35.000Z,32.51
2022-08-26T08:37:12.561Z,32.94
2022-08-26T08:39:49.020Z,33.23
2022-08-26T08:45:42.035Z,33.87
2022-08-26T08:48:28.011Z,34.37
2022-08-26T08:51:20.318Z,35.04
2022-08-26T08:54:00.123Z,34.63
2022-08-26T08:56:41.201Z,36.08
2022-08-26T08:59:24.177Z,35.83
2022-08-26T09:02:18.264Z,36.53
2022-08-26T09:05:19.853Z,36.99
2022-08-26T09:08:02.941Z,37.51
2022-08-26T09:10:48.423Z,38.55
2022-08-26T09:13:27.186Z,39.41
2022-08-26T09:16:18.938Z,39.92
2022-08-26T09:19:19.355Z,40.54
2022-08-26T09:22:08.779Z,40.83
2022-08-26T09:24:48.402Z,41.40
2022-08-26T09:27:45.235Z,41.89
2022-08-26T09:30:30.140Z,43.25
2022-08-26T09:33:11.737Z,44.09
2022-08-26T09:35:52.353Z,44.60
2022-08-26T09:38:36.290Z,43.85
2022-08-26T09:41:32.226Z,43.24
2022-08-26T09:44:21.921Z,43.97
2022-08-26T09:47:06.128Z,44.37
2022-08-26T09:49:45.788Z,45.00
2022-08-26T09:52:27.924Z,44.93
2022-08-26T09:55:22.055Z,44.85
2022-08-26T09:58:06.814Z,44.71
2022-08-26T10:00:57.395Z,45.38
2022-08-26T10:03:39.593Z,45.60
2022-08-26T10:06:28.746Z,46.01
2022-08-26T10:09:09.746Z,45.75
2022-08-26T10:11:54.255Z,46.38
2022-08-26T10:14:39.641Z,45.86
2022-08-26T10:17:30.771Z,46.02
2022-08-26T10:20:22.974Z,45.48
2022-08-26T10:23:07.191Z,45.18
2022-08-26T10:25:59.050Z,45.55
2022-08-26T10:28:46.846Z,44.87
2022-08-26T10:31:40.574Z,44.82
2022-08-26T10:34:21.140Z,44.56
2022-08-26T10:37:13.623Z,45.47
2022-08-26T10:40:00.990Z,45.03
2022-08-26T10:42:44.140Z,44.67
2022-08-26T10:45:27.623Z,44.69
2022-08-26T10:48:11.164Z,44.62
2022-08-26T10:50:49.760Z,44.70
2022-08-26T10:53:44.637Z,44.30
2022-08-26T10:56:41.427Z,43.61
2022-08-26T10:59:30.150Z,43.45
2022-08-26T11:02:24.210Z,43.51
2022-08-26T11:05:04.778Z,42.68
2022-08-26T11:07:51.439Z,42.61
2022-08-26T11:11:01.352Z,42.80
2022-08-26T11:14:07.545Z,42.56
2022-08-26T11:16:48.562Z,42.45
2022-08-26T11:20:09.019Z,42.40
2022-08-26T11:22:49.855Z,42.28
2022-08-26T11:25:30.230Z,41.05
2022-08-26T11:28:07.833Z,40.10
2022-08-26T11:30:58.085Z,40.01
2022-08-26T11:34:03.020Z,40.07
2022-08-26T11:37:05.080Z,40.24
2022-08-26T11:39:57.626Z,38.32
2022-08-26T11:42:44.460Z,37.56
2022-08-26T11:45:29.489Z,36.92
2022-08-26T11:48:29.791Z,37.47
2022-08-26T11:51:09.207Z,38.48
2022-08-26T11:53:47.471Z,37.61
2022-08-26T11:56:33.355Z,37.15
2022-08-26T11:59:16.658Z,36.68
2022-08-26T12:01:57.464Z,36.05
2022-08-26T12:04:42.090Z,36.47
2022-08-26T12:07:23.958Z,36.25
2022-08-26T12:10:05.820Z,35.75
2022-08-26T12:12:42.606Z,35.65
2022-08-26T12:15:23.030Z,35.17
2022-08-26T12:18:00.489Z,35.64
2022-08-26T12:20:54.068Z,35.94
2022-08-26T12:23:46.868Z,35.97
2022-08-26T12:26:31.573Z,35.69
2022-08-26T12:29:20.339Z,34.76
2022-08-26T12:32:17.704Z,34.23
2022-08-26T12:34:55.221Z,34.82
2022-08-26T12:37:34.983Z,35.01
2022-08-26T12:40:44.099Z,34.56
2022-08-26T12:43:44.908Z,34.69
2022-08-26T12:46:31.018Z,32.90
2022-08-26T12:49:07.100Z,33.48
2022-08-26T12:51:50.747Z,33.50
2022-08-26T12:54:47.754Z,33.12
2022-08-26T12:57:31.872Z,32.77
2022-08-26T13:00:36.118Z,33.03
2022-08-26T13:03:46.092Z,33.33
2022-08-26T13:06:34.683Z,33.79
2022-08-26T13:09:34.356Z,34.17
2022-08-26T13:12:11.671Z,34.27
2022-08-26T13:14:47.704Z,33.75
2022-08-26T13:17:24.319Z,32.91
2022-08-26T13:20:04.133Z,32.81
2022-08-26T13:25:19.662Z,32.60
2022-08-26T13:27:56.468Z,33.10
2022-08-26T13:30:32.558Z,33.14
2022-08-26T13:33:09.648Z,33.51
2022-08-26T13:35:48.739Z,32.55
2022-08-26T13:38:33.260Z,32.29
2022-08-26T13:41:10.481Z,32.87
2022-08-26T13:43:49.660Z,33.11
2022-08-26T13:46:25.754Z,33.04
2022-08-26T13:49:03.013Z,32.44
2022-08-26T13:51:40.244Z,32.75
2022-08-26T13:54:16.246Z,32.81
2022-08-26T13:56:52.313Z,33.50
2022-08-26T13:59:28.568Z,33.05
2022-08-26T14:02:04.963Z,33.37
2022-08-26T14:04:40.994Z,33.88
2022-08-26T14:07:17.115Z,33.91
2022-08-26T14:09:53.095Z,34.39
2022-08-26T14:12:29.557Z,34.81
2022-08-26T14:15:06.082Z,34.44
2022-08-26T14:17:43.624Z,34.47
2022-08-26T14:20:27.296Z,34.32
2022-08-26T14:23:13.658Z,34.62
2022-08-26T14:25:50.238Z,34.95
2022-08-26T14:31:08.859Z,34.67
2022-08-26T14:33:45.875Z,34.38
2022-08-26T14:36:32.339Z,34.86
2022-08-26T14:39:13.252Z,35.27
2022-08-26T14:41:56.141Z,35.64
2022-08-26T14:44:35.594Z,35.26
2022-08-26T14:47:12.223Z,35.21
2022-08-26T14:49:48.208Z,35.68
2022-08-26T14:52:24.347Z,35.39
2022-08-26T14:55:00.345Z,35.88
2022-08-26T14:57:36.268Z,36.11
2022-08-26T15:00:15.639Z,35.62
2022-08-26T15:02:51.936Z,35.76
2022-08-26T15:05:28.534Z,35.17
2022-08-26T15:08:10.665Z,35.69
2022-08-26T15:10:46.921Z,35.62
2022-08-26T15:13:22.923Z,35.89
2022-08-26T15:15:59.015Z,35.43
2022-08-26T15:18:35.562Z,35.65
2022-08-26T15:21:12.880Z,35.76
2022-08-26T15:23:49.693Z,35.50
2022-08-26T15:26:27.607Z,35.59
2022-08-26T15:29:05.203Z,35.71
2022-08-26T15:31:41.546Z,35.71
2022-08-26T15:34:18.813Z,35.45
2022-08-26T15:36:56.831Z,35.74
2022-08-26T15:39:32.902Z,35.85
2022-08-26T15:42:12.248Z,35.81
2022-08-26T15:44:50.316Z,36.03
2022-08-26T15:47:26.339Z,36.28
2022-08-26T15:50:04.654Z,36.52
2022-08-26T15:52:42.203Z,36.73
2022-08-26T15:55:18.862Z,36.70
2022-08-26T15:57:58.436Z,36.86
2022-08-26T16:00:37.445Z,36.90
2022-08-26T16:03:13.553Z,36.81
2022-08-26T16:05:50.663Z,36.60
2022-08-26T16:08:27.213Z,36.83
2022-08-26T16:11:07.124Z,37.22
2022-08-26T16:13:43.230Z,37.05
2022-08-26T16:16:21.513Z,37.56
2022-08-26T16:18:57.966Z,37.96
2022-08-26T16:21:34.104Z,37.94
2022-08-26T16:24:12.015Z,37.94
2022-08-26T16:26:49.076Z,37.87
2022-08-26T16:29:25.682Z,38.00
2022-08-26T16:32:08.684Z,38.06
2022-08-26T16:34:56.379Z,37.75
2022-08-26T16:37:35.444Z,37.92
2022-08-26T16:40:15.947Z,38.27
2022-08-26T16:42:52.063Z,38.22
2022-08-26T16:45:29.226Z,38.40
2022-08-26T16:48:07.208Z,38.71
2022-08-26T16:50:45.074Z,38.92
2022-08-26T16:53:21.459Z,39.23
2022-08-26T16:55:57.534Z,39.36
2022-08-26T16:58:34.099Z,39.74
2022-08-26T17:01:10.394Z,40.09
2022-08-26T17:03:46.554Z,40.12
2022-08-26T17:06:23.084Z,40.67
2022-08-26T17:08:59.134Z,40.83
2022-08-26T17:11:35.863Z,41.10
2022-08-26T17:14:12.104Z,41.60
2022-08-26T17:16:51.261Z,42.42
2022-08-26T17:19:27.278Z,42.35
2022-08-26T17:22:06.061Z,42.89
2022-08-26T17:24:42.094Z,44.24
2022-08-26T17:27:18.175Z,45.25
2022-08-26T17:29:54.794Z,46.31
2022-08-26T17:32:30.752Z,47.18
2022-08-26T17:35:09.392Z,47.86
2022-08-26T17:37:49.153Z,48.65
2022-08-26T17:40:30.747Z,48.03
2022-08-26T17:43:10.356Z,49.92
2022-08-26T17:45:48.528Z,49.19
2022-08-26T17:48:25.425Z,51.49
2022-08-26T17:51:01.544Z,52.27
2022-08-26T17:53:37.658Z,52.90
2022-08-26T17:56:17.497Z,53.98
2022-08-26T17:58:56.939Z,54.32
2022-08-26T18:01:33.495Z,55.21
2022-08-26T18:04:10.238Z,56.04
2022-08-26T18:06:46.587Z,56.58
2022-08-26T18:09:24.189Z,57.17
2022-08-26T18:12:01.241Z,57.68
2022-08-26T18:14:37.858Z,58.72
2022-08-26T18:17:13.945Z,59.03
2022-08-26T18:19:53.776Z,59.42
2022-08-26T18:22:30.095Z,58.25
2022-08-26T18:25:08.750Z,60.19
2022-08-26T18:27:45.264Z,61.04
2022-08-26T18:30:24.114Z,61.66
2022-08-26T18:33:00.329Z,62.28
2022-08-26T18:35:41.243Z,62.64
2022-08-26T18:38:18.793Z,62.97
2022-08-26T18:40:55.490Z,63.44
2022-08-26T18:43:31.750Z,63.93
2022-08-26T18:46:13.328Z,64.85
2022-08-26T18:48:50.863Z,65.21
2022-08-26T18:51:30.764Z,65.45
2022-08-26T18:54:10.390Z,65.44
2022-08-26T18:56:49.393Z,65.61
2022-08-26T18:59:28.454Z,65.93
2022-08-26T19:02:07.574Z,66.23
2022-08-26T19:04:43.819Z,66.72
2022-08-26T19:07:20.208Z,67.18
2022-08-26T19:09:57.096Z,67.49
2022-08-26T19:12:33.376Z,67.56
2022-08-26T19:15:12.495Z,67.67
2022-08-26T19:17:48.746Z,67.95
2022-08-26T19:20:25.098Z,68.45
2022-08-26T19:23:05.757Z,68.52
2022-08-26T19:25:50.896Z,68.47
2022-08-26T19:28:31.814Z,68.57
2022-08-26T19:31:10.570Z,68.86
2022-08-26T19:33:48.332Z,68.85
2022-08-26T19:36:27.136Z,68.61
2022-08-26T19:39:07.792Z,68.48
2022-08-26T19:41:44.516Z,68.54
2022-08-26T19:44:43.909Z,68.80
2022-08-26T19:47:21.451Z,69.10
2022-08-26T19:50:00.704Z,69.47
2022-08-26T19:52:38.743Z,69.63
2022-08-26T19:55:21.238Z,69.82
2022-08-26T19:57:57.851Z,69.91
2022-08-26T20:00:39.793Z,70.12
2022-08-26T20:03:16.474Z,70.45
2022-08-26T20:05:53.553Z,70.61
2022-08-26T20:08:29.904Z,70.70
2022-08-26T20:11:13.021Z,70.84
2022-08-26T20:13:50.969Z,70.95
2022-08-26T20:16:27.487Z,71.20
2022-08-26T20:19:21.421Z,71.41
2022-08-26T20:21:57.750Z,71.54
2022-08-26T20:24:36.418Z,71.83
2022-08-26T20:27:12.556Z,71.98
2022-08-26T20:29:48.562Z,72.13
2022-08-26T20:32:25.440Z,72.10
2022-08-26T20:35:01.713Z,72.10
2022-08-26T20:37:39.035Z,72.18
2022-08-26T20:40:18.045Z,72.16
2022-08-26T20:42:56.771Z,72.31
2022-08-26T20:45:32.904Z,72.37
2022-08-26T20:48:09.968Z,72.65
2022-08-26T20:50:46.451Z,72.99
2022-08-26T20:53:22.660Z,73.41
2022-08-26T20:56:08.267Z,73.45
2022-08-26T20:58:45.915Z,73.57
2022-08-26T21:01:26.795Z,73.64
2022-08-26T21:04:08.900Z,73.67
2022-08-26T21:06:52.077Z,73.65
2022-08-26T21:09:29.964Z,73.89
2022-08-26T21:12:07.867Z,73.72
2022-08-26T21:14:47.721Z,73.65
2022-08-26T21:17:24.130Z,73.60
2022-08-26T21:20:00.554Z,73.35
2022-08-26T21:22:37.089Z,73.62
2022-08-26T21:25:15.264Z,73.93
2022-08-26T21:27:51.219Z,74.18
2022-08-26T21:30:27.615Z,74.37
2022-08-26T21:33:07.777Z,74.36
2022-08-26T21:35:51.797Z,74.67
2022-08-26T21:38:30.901Z,74.99
2022-08-26T21:41:11.967Z,75.10
2022-08-26T21:43:50.149Z,75.20
2022-08-26T21:46:30.154Z,75.14
2022-08-26T21:49:12.953Z,75.05
2022-08-26T21:51:52.282Z,75.28
2022-08-26T21:54:28.440Z,75.41
2022-08-26T21:57:04.487Z,75.63
2022-08-26T21:59:40.544Z,75.56
2022-08-26T22:02:16.821Z,75.64
2022-08-26T22:04:54.183Z,75.68
2022-08-26T22:07:30.410Z,75.68
2022-08-26T22:10:08.147Z,75.80
2022-08-26T22:12:44.320Z,76.10
2022-08-26T22:15:23.315Z,76.22
2022-08-26T22:17:59.701Z,76.35
2022-08-26T22:20:36.490Z,76.43
2022-08-26T22:23:13.749Z,76.53
2022-08-26T22:25:50.209Z,76.68
2022-08-26T22:28:27.480Z,76.70
2022-08-26T22:31:03.861Z,76.75
2022-08-26T22:33:44.802Z,76.80
2022-08-26T22:36:32.598Z,76.99
2022-08-26T22:39:13.459Z,77.09
2022-08-26T22:41:55.320Z,77.10
2022-08-26T22:44:32.567Z,77.15
2022-08-26T22:47:09.891Z,77.29
2022-08-26T22:49:46.916Z,77.53
2022-08-26T22:52:23.069Z,77.53
2022-08-26T22:54:59.203Z,77.57
2022-08-26T22:57:35.698Z,77.75
2022-08-26T23:00:17.990Z,78.02
2022-08-26T23:02:54.128Z,78.09
2022-08-26T23:05:31.130Z,78.23
2022-08-26T23:08:08.730Z,78.22
2022-08-26T23:10:48.142Z,78.34
2022-08-26T23:13:24.649Z,78.48
2022-08-26T23:16:11.094Z,78.50
2022-08-26T23:18:47.491Z,78.63
2022-08-26T23:21:23.872Z,78.66
2022-08-26T23:24:00.046Z,78.66
2022-08-26T23:26:37.749Z,78.76
2022-08-26T23:29:16.619Z,78.75
2022-08-26T23:31:52.995Z,78.88
2022-08-26T23:34:46.379Z,79.04
2022-08-26T23:37:24.779Z,79.16
2022-08-26T23:40:06.168Z,79.36
2022-08-26T23:42:42.625Z,79.56
2022-08-26T23:45:20.062Z,79.64
2022-08-26T23:47:57.335Z,79.99
2022-08-26T23:50:49.060Z,80.17
2022-08-26T23:53:26.942Z,80.20
2022-08-26T23:56:03.035Z,80.24
2022-08-26T23:58:39.235Z,80.33
